createdAt,value
2022-12-22T00:00:29.537Z,3.38
2022-12-22T00:03:15.216Z,2.30
2022-12-22T00:06:00.420Z,3.47
2022-12-22T00:08:45.749Z,3.28
2022-12-22T00:11:32.098Z,2.20
2022-12-22T00:14:18.676Z,2.70
2022-12-22T00:17:05.466Z,3.15
2022-12-22T00:19:51.078Z,2.65
2022-12-22T00:22:39.021Z,3.10
2022-12-22T00:25:25.530Z,2.83
2022-12-22T00:28:11.017Z,3.10
2022-12-22T00:30:57.723Z,3.28
2022-12-22T00:33:43.179Z,3.00
2022-12-22T00:36:31.253Z,2.97
2022-12-22T00:39:16.789Z,2.85
2022-12-22T00:42:02.011Z,3.42
2022-12-22T00:44:47.479Z,3.50
2022-12-22T00:47:43.400Z,3.28
2022-12-22T00:50:29.371Z,2.80
2022-12-22T00:53:15.705Z,3.05
2022-12-22T00:56:01.399Z,2.50
2022-12-22T00:58:46.998Z,3.05
2022-12-22T01:01:32.345Z,3.00
2022-12-22T01:04:19.358Z,2.55
2022-12-22T01:07:04.699Z,2.53
2022-12-22T01:09:50.282Z,3.50
2022-12-22T01:12:39.762Z,2.45
2022-12-22T01:15:30.483Z,3.40
2022-12-22T01:18:15.817Z,2.72
2022-12-22T01:21:02.958Z,2.42
2022-12-22T01:23:48.822Z,3.20
2022-12-22T01:26:34.020Z,2.10
2022-12-22T01:29:19.636Z,1.70
2022-12-22T01:32:04.800Z,2.65
2022-12-22T01:34:50.065Z,2.05
2022-12-22T01:37:36.858Z,2.20
2022-12-22T01:40:22.645Z,2.30
2022-12-22T01:43:08.298Z,1.70
2022-12-22T01:45:55.998Z,1.80
2022-12-22T01:48:46.476Z,1.75
2022-12-22T01:51:36.810Z,2.30
2022-12-22T01:54:24.260Z,2.00
2022-12-22T01:57:10.523Z,1.90
2022-12-22T01:59:55.813Z,1.92
2022-12-22T02:02:45.082Z,1.92
2022-12-22T02:05:33.011Z,2.03
2022-12-22T02:08:29.073Z,1.90
2022-12-22T02:11:28.008Z,2.10
2022-12-22T02:14:29.469Z,2.00
2022-12-22T02:17:21.376Z,1.60
2022-12-22T02:20:28.895Z,1.70
2022-12-22T02:23:26.257Z,2.03
2022-12-22T02:26:16.942Z,2.33
2022-12-22T02:29:04.887Z,2.40
2022-12-22T02:31:53.997Z,1.52
2022-12-22T02:34:39.154Z,1.50
2022-12-22T02:37:32.356Z,2.30
2022-12-22T02:40:26.222Z,2.13
2022-12-22T02:43:22.082Z,1.63
2022-12-22T02:46:20.147Z,1.50
2022-12-22T02:49:11.865Z,1.52
2022-12-22T02:52:06.014Z,1.70
2022-12-22T02:54:52.980Z,1.80
2022-12-22T02:57:39.073Z,1.50
2022-12-22T03:00:26.299Z,1.90
2022-12-22T03:03:13.343Z,2.38
2022-12-22T03:05:59.150Z,1.77
2022-12-22T03:08:44.436Z,1.65
2022-12-22T03:11:29.781Z,1.88
2022-12-22T03:14:14.872Z,2.00
2022-12-22T03:17:00.900Z,1.77
2022-12-22T03:19:47.358Z,1.73
2022-12-22T03:22:32.857Z,3.20
2022-12-22T03:25:18.051Z,1.77
2022-12-22T03:27:46.022Z,2.15
2022-12-22T03:30:14.228Z,1.88
2022-12-22T03:32:42.183Z,2.00
2022-12-22T03:35:11.534Z,1.77
2022-12-22T03:37:39.367Z,1.85
2022-12-22T03:40:08.779Z,1.90
2022-12-22T03:42:54.150Z,2.00
2022-12-22T03:45:39.298Z,1.88
2022-12-22T03:48:07.526Z,2.03
2022-12-22T03:50:36.757Z,2.08
2022-12-22T03:53:04.832Z,2.28
2022-12-22T03:55:33.324Z,1.92
2022-12-22T03:58:01.155Z,1.80
2022-12-22T04:00:29.136Z,1.77
2022-12-22T04:02:59.357Z,2.03
2022-12-22T04:05:27.759Z,1.90
2022-12-22T04:07:57.019Z,1.65
2022-12-22T04:10:42.641Z,1.92
2022-12-22T04:13:10.481Z,2.20
2022-12-22T04:15:38.502Z,2.15
2022-12-22T04:18:06.609Z,1.83
2022-12-22T04:20:34.443Z,1.88
2022-12-22T04:23:04.414Z,2.10
2022-12-22T04:25:32.309Z,1.75
2022-12-22T04:28:00.171Z,1.52
2022-12-22T04:30:28.163Z,1.45
2022-12-22T04:32:56.167Z,2.10
2022-12-22T04:35:23.973Z,1.50
2022-12-22T04:37:51.834Z,1.77
2022-12-22T04:40:21.203Z,1.33
2022-12-22T04:42:49.069Z,1.23
2022-12-22T04:45:17.159Z,1.67
2022-12-22T04:47:45.411Z,1.65
2022-12-22T04:50:13.265Z,1.53
2022-12-22T04:52:41.136Z,1.33
2022-12-22T04:55:10.031Z,1.60
2022-12-22T04:57:41.133Z,1.50
2022-12-22T05:00:10.981Z,1.42
2022-12-22T05:02:39.079Z,1.70
2022-12-22T05:05:08.055Z,1.50
2022-12-22T05:07:36.112Z,1.88
2022-12-22T05:10:04.678Z,1.65
2022-12-22T05:12:50.344Z,2.00
2022-12-22T05:15:19.626Z,1.20
2022-12-22T05:17:47.643Z,2.10
2022-12-22T05:20:15.968Z,1.60
2022-12-22T05:22:43.927Z,1.60
2022-12-22T05:25:11.794Z,1.60
2022-12-22T05:27:40.074Z,2.10
2022-12-22T05:30:09.274Z,1.85
2022-12-22T05:32:38.509Z,2.00
2022-12-22T05:35:07.621Z,2.25
2022-12-22T05:37:36.242Z,1.95
2022-12-22T05:40:04.685Z,1.60
2022-12-22T05:42:38.686Z,2.60
2022-12-22T05:45:09.627Z,1.83
2022-12-22T05:47:39.142Z,1.77
2022-12-22T05:50:08.634Z,2.17
2022-12-22T05:52:37.052Z,2.03
2022-12-22T05:55:05.453Z,2.35
2022-12-22T05:57:33.502Z,1.40
2022-12-22T06:00:01.548Z,1.80
2022-12-22T06:02:29.633Z,2.20
2022-12-22T06:04:59.180Z,1.73
2022-12-22T06:07:27.195Z,1.90
2022-12-22T06:09:55.168Z,1.80
2022-12-22T06:12:23.108Z,2.10
2022-12-22T06:14:51.678Z,1.98
2022-12-22T06:17:19.823Z,1.92
2022-12-22T06:19:47.684Z,1.80
2022-12-22T06:22:16.921Z,2.08
2022-12-22T06:24:45.092Z,2.25
2022-12-22T06:27:13.091Z,2.30
2022-12-22T06:29:40.951Z,2.15
2022-12-22T06:32:08.898Z,2.15
2022-12-22T06:34:36.784Z,2.10
2022-12-22T06:37:04.590Z,2.13
2022-12-22T06:39:33.893Z,2.22
2022-12-22T06:42:19.427Z,1.80
2022-12-22T06:44:47.415Z,1.60
2022-12-22T06:47:15.263Z,2.05
2022-12-22T06:49:43.448Z,2.10
2022-12-22T06:52:11.377Z,1.63
2022-12-22T06:54:40.645Z,2.00
2022-12-22T06:57:08.557Z,2.22
2022-12-22T06:59:36.537Z,1.58
2022-12-22T07:02:04.794Z,1.35
2022-12-22T07:04:32.861Z,2.55
2022-12-22T07:07:00.790Z,2.17
2022-12-22T07:09:28.587Z,1.98
2022-12-22T07:11:57.983Z,2.30
2022-12-22T07:14:25.901Z,2.03
2022-12-22T07:16:53.811Z,2.72
2022-12-22T07:19:21.822Z,2.38
2022-12-22T07:21:51.099Z,2.20
2022-12-22T07:24:23.930Z,2.30
2022-12-22T07:26:51.979Z,2.45
2022-12-22T07:29:21.212Z,2.20
2022-12-22T07:31:49.387Z,2.47
2022-12-22T07:34:17.435Z,2.05
2022-12-22T07:36:45.339Z,2.05
2022-12-22T07:39:13.925Z,2.33
2022-12-22T07:41:59.786Z,2.28
2022-12-22T07:44:29.048Z,2.40
2022-12-22T07:46:56.988Z,2.10
2022-12-22T07:49:42.353Z,1.90
2022-12-22T07:52:10.311Z,1.90
2022-12-22T07:54:41.805Z,2.47
2022-12-22T07:57:10.335Z,1.65
2022-12-22T07:59:39.665Z,1.88
2022-12-22T08:02:07.709Z,1.90
2022-12-22T08:04:35.754Z,1.70
2022-12-22T08:07:03.731Z,1.70
2022-12-22T08:09:31.563Z,1.95
2022-12-22T08:11:59.590Z,1.80
2022-12-22T08:14:27.433Z,1.63
2022-12-22T08:16:56.680Z,1.73
2022-12-22T08:19:24.626Z,1.95
2022-12-22T08:21:53.425Z,1.50
2022-12-22T08:24:21.680Z,2.00
2022-12-22T08:26:53.272Z,1.85
2022-12-22T08:29:25.126Z,1.50
2022-12-22T08:31:53.309Z,1.90
2022-12-22T08:34:22.808Z,1.73
2022-12-22T08:36:55.371Z,1.55
2022-12-22T08:39:24.943Z,2.00
2022-12-22T08:41:53.478Z,2.08
2022-12-22T08:44:24.092Z,1.80
2022-12-22T08:46:53.135Z,1.75
2022-12-22T08:49:22.515Z,2.60
2022-12-22T08:51:51.213Z,2.00
2022-12-22T08:54:19.422Z,2.13
2022-12-22T08:56:47.218Z,1.65
2022-12-22T08:59:15.282Z,1.52
2022-12-22T09:01:47.339Z,2.20
2022-12-22T09:04:16.632Z,1.95
2022-12-22T09:06:46.367Z,1.23
2022-12-22T09:09:15.959Z,1.52
2022-12-22T09:11:44.097Z,1.85
2022-12-22T09:14:13.611Z,1.90
2022-12-22T09:16:41.851Z,1.92
2022-12-22T09:19:10.256Z,2.00
2022-12-22T09:21:38.894Z,2.60
2022-12-22T09:24:09.198Z,2.25
2022-12-22T09:26:37.148Z,1.92
2022-12-22T09:29:05.748Z,2.08
2022-12-22T09:31:34.109Z,1.73
2022-12-22T09:34:02.364Z,1.77
2022-12-22T09:36:31.933Z,1.63
2022-12-22T09:38:59.929Z,1.80
2022-12-22T09:41:32.751Z,2.03
2022-12-22T09:44:04.787Z,1.70
2022-12-22T09:46:35.622Z,2.50
2022-12-22T09:49:04.036Z,2.20
2022-12-22T09:51:33.806Z,1.55
2022-12-22T09:54:03.188Z,1.98
2022-12-22T09:56:32.469Z,2.35
2022-12-22T09:59:01.935Z,1.90
2022-12-22T10:01:40.520Z,1.45
2022-12-22T10:04:18.072Z,1.48
2022-12-22T10:06:50.921Z,1.75
2022-12-22T10:09:51.586Z,2.03
2022-12-22T10:12:17.434Z,1.90
2022-12-22T10:14:47.520Z,2.03
2022-12-22T10:17:17.330Z,2.35
2022-12-22T10:19:46.171Z,1.75
2022-12-22T10:22:23.672Z,2.10
2022-12-22T10:24:51.954Z,2.60
2022-12-22T10:27:28.413Z,2.47
2022-12-22T10:30:20.810Z,2.33
2022-12-22T10:33:05.981Z,3.30
2022-12-22T10:35:47.315Z,2.70
2022-12-22T10:38:20.994Z,2.58
2022-12-22T10:40:54.150Z,2.60
2022-12-22T10:43:30.232Z,3.00
2022-12-22T10:45:59.620Z,3.60
2022-12-22T10:48:30.389Z,2.70
2022-12-22T10:51:00.236Z,2.03
2022-12-22T10:53:46.726Z,2.17
2022-12-22T10:56:27.129Z,2.20
2022-12-22T10:59:05.760Z,1.67
2022-12-22T11:01:35.617Z,2.95
2022-12-22T11:04:18.211Z,2.20
2022-12-22T11:06:47.008Z,2.00
2022-12-22T11:09:35.087Z,1.80
2022-12-22T11:12:12.947Z,2.25
2022-12-22T11:14:54.595Z,2.20
2022-12-22T11:17:32.012Z,1.98
2022-12-22T11:20:18.119Z,2.15
2022-12-22T11:22:54.838Z,2.15
2022-12-22T11:25:30.938Z,2.03
2022-12-22T11:28:16.968Z,1.88
2022-12-22T11:30:59.908Z,1.88
2022-12-22T11:33:38.775Z,1.58
2022-12-22T11:36:13.989Z,2.10
2022-12-22T11:38:50.917Z,1.98
2022-12-22T11:41:43.608Z,2.00
2022-12-22T11:44:29.652Z,2.13
2022-12-22T11:47:09.744Z,2.20
2022-12-22T11:49:49.282Z,2.05
2022-12-22T11:52:37.466Z,1.90
2022-12-22T11:55:18.564Z,2.33
2022-12-22T11:57:56.725Z,1.50
2022-12-22T12:00:32.581Z,1.95
2022-12-22T12:03:44.335Z,2.15
2022-12-22T12:06:28.134Z,2.10
2022-12-22T12:09:08.670Z,2.85
2022-12-22T12:11:41.352Z,2.13
2022-12-22T12:14:21.192Z,1.95
2022-12-22T12:16:57.200Z,2.30
2022-12-22T12:20:12.724Z,2.28
2022-12-22T12:22:54.404Z,2.65
2022-12-22T12:25:30.393Z,2.67
2022-12-22T12:28:11.856Z,2.50
2022-12-22T12:30:49.456Z,2.53
2022-12-22T12:33:22.623Z,2.55
2022-12-22T12:36:00.769Z,2.60
2022-12-22T12:39:06.748Z,2.20
2022-12-22T12:41:32.082Z,2.70
2022-12-22T12:44:01.915Z,2.73
2022-12-22T12:46:54.021Z,2.22
2022-12-22T12:49:54.201Z,2.80
2022-12-22T12:52:55.300Z,2.25
2022-12-22T12:55:33.498Z,2.47
2022-12-22T12:58:04.294Z,2.28
2022-12-22T13:00:58.717Z,2.88
2022-12-22T13:06:53.563Z,2.67
2022-12-22T13:12:40.228Z,2.40
2022-12-22T13:15:32.310Z,2.83
2022-12-22T13:18:01.265Z,3.08
2022-12-22T13:20:32.160Z,2.90
2022-12-22T13:23:01.967Z,2.92
2022-12-22T13:25:41.739Z,3.00
2022-12-22T13:28:17.459Z,3.10
2022-12-22T13:30:48.614Z,3.05
2022-12-22T13:33:20.794Z,2.90
2022-12-22T13:35:54.958Z,3.10
2022-12-22T13:38:31.370Z,2.80
2022-12-22T13:41:00.837Z,2.75
2022-12-22T13:43:31.642Z,2.50
2022-12-22T13:46:02.490Z,3.42
2022-12-22T13:48:43.903Z,2.90
2022-12-22T13:51:19.920Z,2.75
2022-12-22T13:54:08.334Z,2.35
2022-12-22T13:56:40.882Z,3.00
2022-12-22T13:59:24.403Z,2.88
2022-12-22T14:01:57.688Z,3.35
2022-12-22T14:04:26.332Z,2.88
2022-12-22T14:06:55.545Z,3.08
2022-12-22T14:09:25.692Z,3.10
2022-12-22T14:11:57.885Z,2.65
2022-12-22T14:14:29.502Z,3.00
2022-12-22T14:17:00.506Z,2.92
2022-12-22T14:19:32.969Z,2.90
2022-12-22T14:22:07.090Z,3.30
2022-12-22T14:24:42.305Z,2.88
2022-12-22T14:27:20.114Z,2.83
2022-12-22T14:29:49.460Z,2.95
2022-12-22T14:32:40.092Z,3.42
2022-12-22T14:35:25.825Z,3.35
2022-12-22T14:37:55.610Z,3.17
2022-12-22T14:40:31.389Z,3.20
2022-12-22T14:43:01.536Z,3.50
2022-12-22T14:45:31.002Z,3.40
2022-12-22T14:47:59.197Z,3.65
2022-12-22T14:50:28.718Z,3.50
2022-12-22T14:52:59.017Z,3.92
2022-12-22T14:55:29.781Z,3.38
2022-12-22T14:58:01.725Z,3.30
2022-12-22T15:00:34.965Z,3.13
2022-12-22T15:03:06.881Z,3.42
2022-12-22T15:05:38.442Z,3.22
2022-12-22T15:08:09.277Z,4.07
2022-12-22T15:10:42.436Z,3.25
2022-12-22T15:13:18.471Z,4.13
2022-12-22T15:15:48.002Z,3.28
2022-12-22T15:18:16.819Z,3.67
2022-12-22T15:20:44.696Z,3.08
2022-12-22T15:23:17.484Z,2.92
2022-12-22T15:25:45.476Z,3.63
2022-12-22T15:28:13.321Z,3.78
2022-12-22T15:30:42.083Z,3.53
2022-12-22T15:33:15.299Z,3.97
2022-12-22T15:35:44.132Z,3.70
2022-12-22T15:38:14.807Z,3.78
2022-12-22T15:40:43.220Z,3.85
2022-12-22T15:43:28.932Z,3.63
2022-12-22T15:45:59.837Z,4.32
2022-12-22T15:48:33.158Z,3.60
2022-12-22T15:51:03.539Z,3.40
2022-12-22T15:53:33.622Z,3.10
2022-12-22T15:56:02.307Z,3.75
2022-12-22T15:58:36.049Z,3.85
2022-12-22T16:01:04.027Z,3.92
2022-12-22T16:03:33.399Z,3.53
2022-12-22T16:06:01.940Z,3.88
2022-12-22T16:08:32.515Z,3.47
2022-12-22T16:11:00.889Z,3.47
2022-12-22T16:13:29.789Z,3.17
2022-12-22T16:15:58.572Z,3.72
2022-12-22T16:18:26.952Z,3.80
2022-12-22T16:21:00.799Z,3.88
2022-12-22T16:23:29.553Z,3.95
2022-12-22T16:26:02.147Z,4.30
2022-12-22T16:28:31.155Z,4.00
2022-12-22T16:30:59.220Z,3.78
2022-12-22T16:33:27.217Z,3.85
2022-12-22T16:35:56.503Z,4.50
2022-12-22T16:38:24.443Z,4.13
2022-12-22T16:40:54.168Z,4.38
2022-12-22T16:46:15.598Z,4.78
2022-12-22T16:48:46.870Z,3.92
2022-12-22T16:51:22.365Z,4.22
2022-12-22T16:53:50.267Z,4.38
2022-12-22T16:56:20.823Z,4.97
2022-12-22T16:58:49.398Z,4.53
2022-12-22T17:01:37.782Z,4.32
2022-12-22T17:04:09.350Z,4.65
2022-12-22T17:06:39.285Z,4.22
2022-12-22T17:09:12.531Z,4.50
2022-12-22T17:11:40.984Z,4.10
2022-12-22T17:14:18.392Z,4.95
2022-12-22T17:16:46.392Z,5.07
2022-12-22T17:19:14.307Z,4.90
2022-12-22T17:21:44.028Z,5.35
2022-12-22T17:24:14.886Z,4.72
2022-12-22T17:26:43.531Z,4.95
2022-12-22T17:29:16.974Z,5.15
2022-12-22T17:31:45.037Z,5.40
2022-12-22T17:34:16.562Z,5.30
2022-12-22T17:36:48.028Z,5.32
2022-12-22T17:39:17.691Z,5.72
2022-12-22T17:41:49.070Z,5.30
2022-12-22T17:44:23.999Z,5.72
2022-12-22T17:46:52.140Z,5.38
2022-12-22T17:49:22.261Z,5.28
2022-12-22T17:51:52.288Z,6.15
2022-12-22T17:54:24.863Z,6.18
2022-12-22T17:56:53.465Z,6.47
2022-12-22T17:59:21.501Z,6.28
2022-12-22T18:01:49.476Z,6.40
2022-12-22T18:04:17.569Z,5.68
2022-12-22T18:06:45.773Z,5.97
2022-12-22T18:09:21.772Z,5.65
2022-12-22T18:11:50.202Z,6.10
2022-12-22T18:14:18.417Z,5.47
2022-12-22T18:16:46.577Z,5.38
2022-12-22T18:19:14.544Z,5.50
2022-12-22T18:21:42.511Z,5.70
2022-12-22T18:24:17.514Z,6.00
2022-12-22T18:26:46.966Z,6.00
2022-12-22T18:29:15.774Z,5.32
2022-12-22T18:31:44.619Z,5.18
2022-12-22T18:34:12.863Z,6.07
2022-12-22T18:36:42.458Z,5.88
2022-12-22T18:39:20.395Z,5.72
2022-12-22T18:41:48.409Z,6.18
2022-12-22T18:44:18.064Z,5.93
2022-12-22T18:46:46.285Z,6.63
2022-12-22T18:49:14.431Z,5.68
2022-12-22T18:51:43.615Z,5.88
2022-12-22T18:54:24.778Z,6.40
2022-12-22T18:56:52.864Z,5.70
2022-12-22T18:59:25.835Z,6.13
2022-12-22T19:01:53.993Z,6.43
2022-12-22T19:04:21.990Z,6.60
2022-12-22T19:06:50.023Z,6.32
2022-12-22T19:09:18.002Z,6.20
2022-12-22T19:11:47.332Z,6.15
2022-12-22T19:14:19.602Z,6.70
2022-12-22T19:16:48.841Z,6.40
2022-12-22T19:19:19.566Z,6.80
2022-12-22T19:21:48.742Z,6.50
2022-12-22T19:24:16.762Z,7.55
2022-12-22T19:26:44.831Z,6.43
2022-12-22T19:29:15.721Z,6.32
2022-12-22T19:31:44.830Z,6.60
2022-12-22T19:34:19.279Z,6.50
2022-12-22T19:36:47.436Z,6.30
2022-12-22T19:39:15.313Z,7.10
2022-12-22T19:41:47.002Z,6.40
2022-12-22T19:44:22.084Z,6.25
2022-12-22T19:46:50.705Z,6.68
2022-12-22T19:49:20.312Z,6.20
2022-12-22T19:51:48.783Z,6.10
2022-12-22T19:54:17.108Z,6.65
2022-12-22T19:56:48.505Z,6.03
2022-12-22T19:59:28.114Z,6.68
2022-12-22T20:01:59.558Z,6.40
2022-12-22T20:04:27.820Z,5.88
2022-12-22T20:06:58.057Z,6.28
2022-12-22T20:09:25.962Z,6.72
2022-12-22T20:11:53.972Z,7.10
2022-12-22T20:14:26.379Z,5.82
2022-12-22T20:16:54.308Z,6.72
2022-12-22T20:19:22.157Z,7.25
2022-12-22T20:21:50.234Z,6.43
2022-12-22T20:24:23.729Z,6.95
2022-12-22T20:26:54.480Z,6.95
2022-12-22T20:29:25.234Z,7.05
2022-12-22T20:31:53.701Z,6.20
2022-12-22T20:34:21.735Z,6.32
2022-12-22T20:36:49.801Z,6.35
2022-12-22T20:39:20.603Z,6.18
2022-12-22T20:41:52.867Z,6.93
2022-12-22T20:44:21.222Z,7.05
2022-12-22T20:46:50.460Z,6.50
2022-12-22T20:49:18.303Z,6.30
2022-12-22T20:51:46.423Z,6.22
2022-12-22T20:54:15.188Z,6.38
2022-12-22T20:56:45.338Z,7.10
2022-12-22T20:59:15.775Z,6.38
2022-12-22T21:01:43.833Z,6.72
2022-12-22T21:04:14.208Z,6.15
2022-12-22T21:06:47.079Z,6.63
2022-12-22T21:09:16.231Z,6.57
2022-12-22T21:11:44.495Z,5.97
2022-12-22T21:14:13.091Z,6.47
2022-12-22T21:16:42.104Z,5.80
2022-12-22T21:19:16.169Z,6.72
2022-12-22T21:21:45.387Z,6.60
2022-12-22T21:24:13.273Z,6.63
2022-12-22T21:26:43.087Z,6.85
2022-12-22T21:29:17.168Z,7.65
2022-12-22T21:31:47.529Z,7.07
2022-12-22T21:34:15.464Z,7.22
2022-12-22T21:36:47.207Z,6.93
2022-12-22T21:39:24.741Z,7.55
2022-12-22T21:42:03.301Z,7.70
2022-12-22T21:44:32.835Z,7.60
2022-12-22T21:47:01.064Z,6.90
2022-12-22T21:49:32.002Z,7.00
2022-12-22T21:52:01.459Z,7.63
2022-12-22T21:54:30.862Z,7.43
2022-12-22T21:56:58.877Z,7.20
2022-12-22T21:59:26.899Z,7.10
2022-12-22T22:01:56.364Z,7.35
2022-12-22T22:04:24.930Z,8.45
2022-12-22T22:06:52.784Z,7.20
2022-12-22T22:09:22.148Z,7.80
2022-12-22T22:12:08.080Z,7.38
2022-12-22T22:14:36.044Z,7.68
2022-12-22T22:17:06.803Z,6.82
2022-12-22T22:19:34.853Z,7.50
2022-12-22T22:22:04.088Z,7.78
2022-12-22T22:24:33.419Z,7.90
2022-12-22T22:27:01.602Z,7.70
2022-12-22T22:29:29.522Z,8.20
2022-12-22T22:31:57.323Z,7.55
2022-12-22T22:34:25.240Z,6.65
2022-12-22T22:36:53.272Z,7.47
2022-12-22T22:39:21.087Z,6.95
2022-12-22T22:41:50.532Z,7.38
2022-12-22T22:44:18.844Z,6.93
2022-12-22T22:46:46.835Z,7.05
2022-12-22T22:49:14.892Z,6.93
2022-12-22T22:51:42.896Z,6.38
2022-12-22T22:54:13.102Z,6.90
2022-12-22T22:56:41.122Z,6.55
2022-12-22T22:59:12.621Z,6.38
2022-12-22T23:01:40.884Z,6.85
2022-12-22T23:04:09.140Z,7.07
2022-12-22T23:06:37.177Z,7.00
2022-12-22T23:09:05.247Z,7.20
2022-12-22T23:11:33.183Z,7.20
2022-12-22T23:14:01.138Z,6.40
2022-12-22T23:16:35.711Z,6.93
2022-12-22T23:19:06.030Z,6.45
2022-12-22T23:21:33.915Z,6.47
2022-12-22T23:24:01.811Z,6.50
2022-12-22T23:26:29.810Z,6.75
2022-12-22T23:29:02.989Z,6.25
2022-12-22T23:31:33.808Z,6.40
2022-12-22T23:34:01.934Z,6.85
2022-12-22T23:36:29.928Z,6.50
2022-12-22T23:38:58.242Z,6.90
2022-12-22T23:41:26.212Z,6.10
2022-12-22T23:43:54.690Z,6.57
2022-12-22T23:46:23.384Z,6.13
2022-12-22T23:48:53.902Z,7.07
2022-12-22T23:51:22.417Z,7.13
2022-12-22T23:53:50.587Z,6.05
2022-12-22T23:56:18.503Z,6.00
2022-12-22T23:58:50.978Z,6.65
